KDNV/DNV METAR and TAF weather

Enter ICAO airport designator
Station Type Date Time Source
KDNV METAR 2021/04/18 02:15 UTC NOAA

KDNV 180215Z AUTO 06005KT 10SM SCT075 10/00 A2996 RMK AO2 T01001002


Station Type Date Time Source
KDNV Decoded METAR 2021/04/18 02:15 UTC NOAA

Danville, Vermilion County Airport, IL, United States (KDNV) 40-11-58N 087-35-44W
Apr 17, 2021 - 10:15 PM EDT / 2021.04.18 0215 UTC
Wind: from the ENE (060 degrees) at 6 MPH (5 KT):0
Visibility: 10 mile(s):0
Sky conditions: partly cloudy
Temperature: 50.0 F (10.0 C)
Dew Point: 31.6 F (-0.2 C)
Relative Humidity: 49%
Pressure (altimeter): 29.96 in. Hg (1014 hPa)
ob: KDNV 180215Z AUTO 06005KT 10SM SCT075 10/00 A2996 RMK AO2 T01001002
cycle: 2

Station Type Date Time Source
KDNV TAF UTC NOAA

Error!

Example: see airport list